sensor_id;sensor_type;location;lat;lon;timestamp;P1;durP1;ratioP1;P2;durP2;ratioP2
9888;SDS011;4983;42.112;24.738;2022-10-26T00:00:02;26.07;;;12.33;;
9888;SDS011;4983;42.112;24.738;2022-10-26T00:02:29;26.43;;;13.20;;
9888;SDS011;4983;42.112;24.738;2022-10-26T00:04:56;31.93;;;14.20;;
9888;SDS011;4983;42.112;24.738;2022-10-26T00:07:23;23.87;;;14.07;;
9888;SDS011;4983;42.112;24.738;2022-10-26T00:09:49;29.83;;;14.00;;
9888;SDS011;4983;42.112;24.738;2022-10-26T00:12:18;28.20;;;13.77;;
9888;SDS011;4983;42.112;24.738;2022-10-26T00:14:44;27.70;;;14.33;;
9888;SDS011;4983;42.112;24.738;2022-10-26T00:17:11;28.07;;;14.27;;
9888;SDS011;4983;42.112;24.738;2022-10-26T00:19:38;32.37;;;14.40;;
9888;SDS011;4983;42.112;24.738;2022-10-26T00:22:04;29.67;;;13.87;;
9888;SDS011;4983;42.112;24.738;2022-10-26T00:24:31;26.73;;;14.40;;
9888;SDS011;4983;42.112;24.738;2022-10-26T00:26:58;27.83;;;13.70;;
9888;SDS011;4983;42.112;24.738;2022-10-26T00:29:26;25.80;;;13.30;;
9888;SDS011;4983;42.112;24.738;2022-10-26T00:31:53;30.43;;;12.67;;
9888;SDS011;4983;42.112;24.738;2022-10-26T00:34:20;24.23;;;12.40;;
9888;SDS011;4983;42.112;24.738;2022-10-26T00:36:46;23.00;;;11.23;;
9888;SDS011;4983;42.112;24.738;2022-10-26T00:39:13;37.93;;;11.73;;
9888;SDS011;4983;42.112;24.738;2022-10-26T00:41:40;43.90;;;18.17;;
9888;SDS011;4983;42.112;24.738;2022-10-26T00:46:54;20.90;;;10.73;;
9888;SDS011;4983;42.112;24.738;2022-10-26T00:49:20;25.50;;;10.10;;
9888;SDS011;4983;42.112;24.738;2022-10-26T00:51:49;23.67;;;10.73;;
9888;SDS011;4983;42.112;24.738;2022-10-26T00:54:17;21.33;;;9.07;;
9888;SDS011;4983;42.112;24.738;2022-10-26T00:56:44;23.97;;;8.87;;
9888;SDS011;4983;42.112;24.738;2022-10-26T00:59:11;16.77;;;7.43;;
9888;SDS011;4983;42.112;24.738;2022-10-26T01:01:39;18.43;;;6.83;;
9888;SDS011;4983;42.112;24.738;2022-10-26T01:04:08;17.83;;;6.27;;
9888;SDS011;4983;42.112;24.738;2022-10-26T01:06:35;15.70;;;5.73;;
9888;SDS011;4983;42.112;24.738;2022-10-26T01:09:02;21.83;;;6.30;;
9888;SDS011;4983;42.112;24.738;2022-10-26T01:11:29;20.47;;;5.93;;
9888;SDS011;4983;42.112;24.738;2022-10-26T01:13:56;17.10;;;5.40;;
9888;SDS011;4983;42.112;24.738;2022-10-26T01:16:31;16.30;;;5.37;;
9888;SDS011;4983;42.112;24.738;2022-10-26T01:19:04;13.27;;;4.90;;
9888;SDS011;4983;42.112;24.738;2022-10-26T01:21:41;14.03;;;5.23;;
9888;SDS011;4983;42.112;24.738;2022-10-26T01:27:00;14.33;;;5.27;;
9888;SDS011;4983;42.112;24.738;2022-10-26T01:29:42;18.20;;;5.00;;
9888;SDS011;4983;42.112;24.738;2022-10-26T01:32:17;13.80;;;5.23;;
9888;SDS011;4983;42.112;24.738;2022-10-26T01:34:48;18.60;;;5.47;;
9888;SDS011;4983;42.112;24.738;2022-10-26T01:37:21;18.83;;;5.23;;
9888;SDS011;4983;42.112;24.738;2022-10-26T01:39:48;18.30;;;5.60;;
9888;SDS011;4983;42.112;24.738;2022-10-26T01:42:18;12.53;;;5.47;;
9888;SDS011;4983;42.112;24.738;2022-10-26T01:44:47;20.63;;;5.87;;
9888;SDS011;4983;42.112;24.738;2022-10-26T01:47:15;13.57;;;4.53;;
9888;SDS011;4983;42.112;24.738;2022-10-26T01:49:45;18.73;;;5.43;;
9888;SDS011;4983;42.112;24.738;2022-10-26T01:52:13;13.33;;;4.77;;
9888;SDS011;4983;42.112;24.738;2022-10-26T01:54:39;17.03;;;5.30;;
9888;SDS011;4983;42.112;24.738;2022-10-26T01:57:07;12.17;;;4.40;;
9888;SDS011;4983;42.112;24.738;2022-10-26T01:59:37;13.27;;;5.13;;
9888;SDS011;4983;42.112;24.738;2022-10-26T02:02:24;13.17;;;4.80;;
9888;SDS011;4983;42.112;24.738;2022-10-26T02:05:03;16.63;;;5.20;;
9888;SDS011;4983;42.112;24.738;2022-10-26T02:07:36;19.70;;;5.20;;
9888;SDS011;4983;42.112;24.738;2022-10-26T02:10:08;18.10;;;4.80;;
9888;SDS011;4983;42.112;24.738;2022-10-26T02:12:37;14.47;;;4.70;;
9888;SDS011;4983;42.112;24.738;2022-10-26T02:15:06;13.30;;;4.93;;
9888;SDS011;4983;42.112;24.738;2022-10-26T02:17:34;13.87;;;4.87;;
9888;SDS011;4983;42.112;24.738;2022-10-26T02:20:05;15.77;;;4.67;;
9888;SDS011;4983;42.112;24.738;2022-10-26T02:22:34;17.93;;;5.50;;
9888;SDS011;4983;42.112;24.738;2022-10-26T02:25:03;18.47;;;5.30;;
9888;SDS011;4983;42.112;24.738;2022-10-26T02:27:33;12.73;;;4.80;;
9888;SDS011;4983;42.112;24.738;2022-10-26T02:30:00;14.53;;;4.83;;
9888;SDS011;4983;42.112;24.738;2022-10-26T02:32:28;15.20;;;5.13;;
9888;SDS011;4983;42.112;24.738;2022-10-26T02:34:57;16.10;;;5.07;;
9888;SDS011;4983;42.112;24.738;2022-10-26T02:37:27;14.90;;;5.17;;
9888;SDS011;4983;42.112;24.738;2022-10-26T02:39:54;15.63;;;5.50;;
9888;SDS011;4983;42.112;24.738;2022-10-26T02:42:22;13.03;;;5.03;;
9888;SDS011;4983;42.112;24.738;2022-10-26T02:44:50;15.40;;;5.43;;
9888;SDS011;4983;42.112;24.738;2022-10-26T02:47:19;15.17;;;5.30;;
9888;SDS011;4983;42.112;24.738;2022-10-26T02:49:46;19.40;;;5.40;;
9888;SDS011;4983;42.112;24.738;2022-10-26T02:52:14;18.47;;;5.07;;
9888;SDS011;4983;42.112;24.738;2022-10-26T02:54:47;16.30;;;4.97;;
9888;SDS011;4983;42.112;24.738;2022-10-26T02:57:15;14.93;;;5.53;;
9888;SDS011;4983;42.112;24.738;2022-10-26T02:59:44;17.17;;;5.13;;
9888;SDS011;4983;42.112;24.738;2022-10-26T03:02:11;15.33;;;5.17;;
9888;SDS011;4983;42.112;24.738;2022-10-26T03:04:39;14.63;;;5.17;;
9888;SDS011;4983;42.112;24.738;2022-10-26T03:07:05;14.43;;;5.27;;
9888;SDS011;4983;42.112;24.738;2022-10-26T03:09:32;14.50;;;4.73;;
9888;SDS011;4983;42.112;24.738;2022-10-26T03:12:01;21.17;;;5.53;;
9888;SDS011;4983;42.112;24.738;2022-10-26T03:14:27;17.80;;;5.30;;
9888;SDS011;4983;42.112;24.738;2022-10-26T03:16:54;12.47;;;4.63;;
9888;SDS011;4983;42.112;24.738;2022-10-26T03:19:21;18.33;;;4.97;;
9888;SDS011;4983;42.112;24.738;2022-10-26T03:21:48;16.70;;;5.13;;
9888;SDS011;4983;42.112;24.738;2022-10-26T03:24:15;12.17;;;4.90;;
9888;SDS011;4983;42.112;24.738;2022-10-26T03:26:43;17.17;;;4.83;;
9888;SDS011;4983;42.112;24.738;2022-10-26T03:29:11;15.13;;;4.83;;
9888;SDS011;4983;42.112;24.738;2022-10-26T03:31:38;15.03;;;5.07;;
9888;SDS011;4983;42.112;24.738;2022-10-26T03:34:05;23.33;;;5.10;;
9888;SDS011;4983;42.112;24.738;2022-10-26T03:36:31;18.43;;;4.70;;
9888;SDS011;4983;42.112;24.738;2022-10-26T03:38:58;17.97;;;4.97;;
9888;SDS011;4983;42.112;24.738;2022-10-26T03:41:25;17.80;;;4.80;;
9888;SDS011;4983;42.112;24.738;2022-10-26T03:43:52;18.37;;;5.67;;
9888;SDS011;4983;42.112;24.738;2022-10-26T03:46:20;13.63;;;4.83;;
9888;SDS011;4983;42.112;24.738;2022-10-26T03:48:47;12.50;;;4.60;;
9888;SDS011;4983;42.112;24.738;2022-10-26T03:51:13;14.80;;;4.63;;
9888;SDS011;4983;42.112;24.738;2022-10-26T03:53:40;12.80;;;4.73;;
9888;SDS011;4983;42.112;24.738;2022-10-26T03:56:07;15.27;;;5.00;;
9888;SDS011;4983;42.112;24.738;2022-10-26T03:58:33;13.63;;;4.63;;
9888;SDS011;4983;42.112;24.738;2022-10-26T04:01:01;10.93;;;4.87;;
9888;SDS011;4983;42.112;24.738;2022-10-26T04:03:29;18.50;;;5.00;;
9888;SDS011;4983;42.112;24.738;2022-10-26T04:05:58;19.07;;;5.47;;
9888;SDS011;4983;42.112;24.738;2022-10-26T04:08:25;19.57;;;4.77;;
9888;SDS011;4983;42.112;24.738;2022-10-26T04:10:52;13.77;;;4.80;;
9888;SDS011;4983;42.112;24.738;2022-10-26T04:13:18;16.93;;;5.27;;
9888;SDS011;4983;42.112;24.738;2022-10-26T04:15:45;17.23;;;5.57;;
9888;SDS011;4983;42.112;24.738;2022-10-26T04:18:12;17.50;;;5.53;;
9888;SDS011;4983;42.112;24.738;2022-10-26T04:20:40;18.93;;;5.17;;
9888;SDS011;4983;42.112;24.738;2022-10-26T04:23:10;20.83;;;4.67;;
9888;SDS011;4983;42.112;24.738;2022-10-26T04:25:37;18.07;;;4.80;;
9888;SDS011;4983;42.112;24.738;2022-10-26T04:28:05;26.30;;;5.13;;
9888;SDS011;4983;42.112;24.738;2022-10-26T04:30:32;18.33;;;4.97;;
9888;SDS011;4983;42.112;24.738;2022-10-26T04:33:00;14.23;;;4.87;;
9888;SDS011;4983;42.112;24.738;2022-10-26T04:35:26;31.97;;;5.83;;
9888;SDS011;4983;42.112;24.738;2022-10-26T04:37:57;37.03;;;7.60;;
9888;SDS011;4983;42.112;24.738;2022-10-26T04:40:24;12.60;;;4.80;;
9888;SDS011;4983;42.112;24.738;2022-10-26T04:42:51;20.83;;;5.40;;
9888;SDS011;4983;42.112;24.738;2022-10-26T04:45:18;48.53;;;7.60;;
9888;SDS011;4983;42.112;24.738;2022-10-26T04:47:44;18.73;;;4.90;;
9888;SDS011;4983;42.112;24.738;2022-10-26T04:50:11;27.10;;;6.20;;
9888;SDS011;4983;42.112;24.738;2022-10-26T04:52:39;28.63;;;5.87;;
9888;SDS011;4983;42.112;24.738;2022-10-26T04:55:07;20.37;;;5.60;;
9888;SDS011;4983;42.112;24.738;2022-10-26T04:57:34;20.73;;;5.37;;
9888;SDS011;4983;42.112;24.738;2022-10-26T05:00:02;20.90;;;5.70;;
9888;SDS011;4983;42.112;24.738;2022-10-26T05:02:29;16.40;;;5.37;;
9888;SDS011;4983;42.112;24.738;2022-10-26T05:04:56;16.57;;;5.40;;
9888;SDS011;4983;42.112;24.738;2022-10-26T05:07:22;15.93;;;5.63;;
9888;SDS011;4983;42.112;24.738;2022-10-26T05:09:49;17.77;;;5.80;;
9888;SDS011;4983;42.112;24.738;2022-10-26T05:12:17;22.03;;;5.67;;
9888;SDS011;4983;42.112;24.738;2022-10-26T05:14:44;14.50;;;4.97;;
9888;SDS011;4983;42.112;24.738;2022-10-26T05:17:11;31.43;;;5.67;;
9888;SDS011;4983;42.112;24.738;2022-10-26T05:19:38;22.47;;;5.63;;
9888;SDS011;4983;42.112;24.738;2022-10-26T05:22:04;19.80;;;5.07;;
9888;SDS011;4983;42.112;24.738;2022-10-26T05:24:31;16.07;;;5.33;;
9888;SDS011;4983;42.112;24.738;2022-10-26T05:26:58;19.83;;;5.53;;
9888;SDS011;4983;42.112;24.738;2022-10-26T05:29:26;53.10;;;20.90;;
9888;SDS011;4983;42.112;24.738;2022-10-26T05:31:53;30.07;;;7.57;;
9888;SDS011;4983;42.112;24.738;2022-10-26T05:34:20;17.87;;;5.90;;
9888;SDS011;4983;42.112;24.738;2022-10-26T05:36:47;21.93;;;5.97;;
9888;SDS011;4983;42.112;24.738;2022-10-26T05:39:14;14.07;;;5.23;;
9888;SDS011;4983;42.112;24.738;2022-10-26T05:41:41;28.80;;;8.10;;
9888;SDS011;4983;42.112;24.738;2022-10-26T05:44:07;20.47;;;6.17;;
9888;SDS011;4983;42.112;24.738;2022-10-26T05:46:35;16.93;;;5.47;;
9888;SDS011;4983;42.112;24.738;2022-10-26T05:49:02;19.03;;;5.97;;
9888;SDS011;4983;42.112;24.738;2022-10-26T05:51:31;20.87;;;5.40;;
9888;SDS011;4983;42.112;24.738;2022-10-26T05:53:58;19.30;;;5.20;;
9888;SDS011;4983;42.112;24.738;2022-10-26T05:56:31;25.43;;;6.63;;
9888;SDS011;4983;42.112;24.738;2022-10-26T05:58:59;13.70;;;5.00;;
9888;SDS011;4983;42.112;24.738;2022-10-26T06:01:27;19.73;;;5.20;;
9888;SDS011;4983;42.112;24.738;2022-10-26T06:04:01;13.70;;;4.70;;
9888;SDS011;4983;42.112;24.738;2022-10-26T06:06:35;12.80;;;5.10;;
9888;SDS011;4983;42.112;24.738;2022-10-26T06:09:03;15.27;;;5.33;;
9888;SDS011;4983;42.112;24.738;2022-10-26T06:11:30;13.90;;;4.80;;
9888;SDS011;4983;42.112;24.738;2022-10-26T06:13:57;18.37;;;5.80;;
9888;SDS011;4983;42.112;24.738;2022-10-26T06:16:28;20.23;;;5.03;;
9888;SDS011;4983;42.112;24.738;2022-10-26T06:18:59;17.17;;;5.73;;
9888;SDS011;4983;42.112;24.738;2022-10-26T06:21:37;46.93;;;8.60;;
9888;SDS011;4983;42.112;24.738;2022-10-26T06:24:07;18.07;;;5.47;;
9888;SDS011;4983;42.112;24.738;2022-10-26T06:26:36;28.07;;;6.77;;
9888;SDS011;4983;42.112;24.738;2022-10-26T06:29:09;15.07;;;4.67;;
9888;SDS011;4983;42.112;24.738;2022-10-26T06:31:38;8.77;;;4.90;;
9888;SDS011;4983;42.112;24.738;2022-10-26T06:34:04;14.23;;;4.53;;
9888;SDS011;4983;42.112;24.738;2022-10-26T06:36:31;14.80;;;4.60;;
9888;SDS011;4983;42.112;24.738;2022-10-26T06:39:00;16.67;;;4.67;;
9888;SDS011;4983;42.112;24.738;2022-10-26T06:41:29;23.20;;;5.77;;
9888;SDS011;4983;42.112;24.738;2022-10-26T06:43:57;15.57;;;4.60;;
9888;SDS011;4983;42.112;24.738;2022-10-26T06:46:26;11.53;;;4.90;;
9888;SDS011;4983;42.112;24.738;2022-10-26T06:48:57;28.97;;;6.23;;
9888;SDS011;4983;42.112;24.738;2022-10-26T06:51:25;11.73;;;4.30;;
9888;SDS011;4983;42.112;24.738;2022-10-26T06:53:54;10.93;;;4.70;;
9888;SDS011;4983;42.112;24.738;2022-10-26T06:56:24;13.10;;;4.60;;
9888;SDS011;4983;42.112;24.738;2022-10-26T06:58:51;23.47;;;5.20;;
9888;SDS011;4983;42.112;24.738;2022-10-26T07:01:19;15.37;;;4.23;;
9888;SDS011;4983;42.112;24.738;2022-10-26T07:03:46;13.90;;;4.00;;
9888;SDS011;4983;42.112;24.738;2022-10-26T07:06:12;20.80;;;4.47;;
9888;SDS011;4983;42.112;24.738;2022-10-26T07:08:40;12.57;;;3.87;;
9888;SDS011;4983;42.112;24.738;2022-10-26T07:11:07;11.63;;;3.90;;
9888;SDS011;4983;42.112;24.738;2022-10-26T07:13:36;8.50;;;4.00;;
9888;SDS011;4983;42.112;24.738;2022-10-26T07:16:02;9.23;;;3.87;;
9888;SDS011;4983;42.112;24.738;2022-10-26T07:18:29;17.13;;;4.77;;
9888;SDS011;4983;42.112;24.738;2022-10-26T07:20:57;11.27;;;4.30;;
9888;SDS011;4983;42.112;24.738;2022-10-26T07:23:24;13.77;;;4.50;;
9888;SDS011;4983;42.112;24.738;2022-10-26T07:25:50;15.57;;;4.43;;
9888;SDS011;4983;42.112;24.738;2022-10-26T07:28:17;8.40;;;4.33;;
9888;SDS011;4983;42.112;24.738;2022-10-26T07:30:45;10.20;;;4.20;;
9888;SDS011;4983;42.112;24.738;2022-10-26T07:33:12;13.00;;;4.30;;
9888;SDS011;4983;42.112;24.738;2022-10-26T07:35:39;12.20;;;4.40;;
9888;SDS011;4983;42.112;24.738;2022-10-26T07:38:07;14.00;;;4.37;;
9888;SDS011;4983;42.112;24.738;2022-10-26T07:40:34;12.37;;;3.93;;
9888;SDS011;4983;42.112;24.738;2022-10-26T07:43:01;15.90;;;4.33;;
9888;SDS011;4983;42.112;24.738;2022-10-26T07:45:28;8.80;;;4.10;;
9888;SDS011;4983;42.112;24.738;2022-10-26T07:47:56;18.43;;;4.70;;
9888;SDS011;4983;42.112;24.738;2022-10-26T07:50:23;16.97;;;3.93;;
9888;SDS011;4983;42.112;24.738;2022-10-26T07:52:49;17.87;;;4.63;;
9888;SDS011;4983;42.112;24.738;2022-10-26T07:55:16;16.67;;;3.97;;
9888;SDS011;4983;42.112;24.738;2022-10-26T07:57:43;14.40;;;4.30;;
9888;SDS011;4983;42.112;24.738;2022-10-26T08:00:10;20.03;;;4.20;;
9888;SDS011;4983;42.112;24.738;2022-10-26T08:02:37;9.67;;;4.10;;
9888;SDS011;4983;42.112;24.738;2022-10-26T08:05:06;33.33;;;7.50;;
9888;SDS011;4983;42.112;24.738;2022-10-26T08:07:39;19.67;;;4.00;;
9888;SDS011;4983;42.112;24.738;2022-10-26T08:10:05;11.57;;;4.10;;
9888;SDS011;4983;42.112;24.738;2022-10-26T08:12:32;13.63;;;3.90;;
9888;SDS011;4983;42.112;24.738;2022-10-26T08:14:59;9.70;;;3.60;;
9888;SDS011;4983;42.112;24.738;2022-10-26T08:17:27;10.87;;;4.10;;
9888;SDS011;4983;42.112;24.738;2022-10-26T08:19:53;16.33;;;5.13;;
9888;SDS011;4983;42.112;24.738;2022-10-26T08:22:22;21.87;;;4.70;;
9888;SDS011;4983;42.112;24.738;2022-10-26T08:24:48;12.80;;;3.60;;
9888;SDS011;4983;42.112;24.738;2022-10-26T08:27:15;10.33;;;3.87;;
9888;SDS011;4983;42.112;24.738;2022-10-26T08:29:42;14.03;;;4.03;;
9888;SDS011;4983;42.112;24.738;2022-10-26T08:32:09;25.93;;;5.67;;
9888;SDS011;4983;42.112;24.738;2022-10-26T08:34:36;24.13;;;5.60;;
9888;SDS011;4983;42.112;24.738;2022-10-26T08:37:03;13.77;;;3.97;;
9888;SDS011;4983;42.112;24.738;2022-10-26T08:39:31;12.60;;;3.77;;
9888;SDS011;4983;42.112;24.738;2022-10-26T08:42:01;9.50;;;3.50;;
9888;SDS011;4983;42.112;24.738;2022-10-26T08:44:32;18.33;;;4.27;;
9888;SDS011;4983;42.112;24.738;2022-10-26T08:47:03;8.23;;;3.17;;
9888;SDS011;4983;42.112;24.738;2022-10-26T08:49:31;18.97;;;4.53;;
9888;SDS011;4983;42.112;24.738;2022-10-26T08:52:03;9.27;;;3.30;;
9888;SDS011;4983;42.112;24.738;2022-10-26T08:54:34;5.90;;;2.80;;
9888;SDS011;4983;42.112;24.738;2022-10-26T08:57:03;14.80;;;4.00;;
9888;SDS011;4983;42.112;24.738;2022-10-26T08:59:37;6.03;;;2.70;;
9888;SDS011;4983;42.112;24.738;2022-10-26T09:02:08;14.60;;;3.50;;
9888;SDS011;4983;42.112;24.738;2022-10-26T09:04:36;10.97;;;3.30;;
9888;SDS011;4983;42.112;24.738;2022-10-26T09:07:04;6.90;;;3.00;;
9888;SDS011;4983;42.112;24.738;2022-10-26T09:09:40;8.17;;;2.50;;
9888;SDS011;4983;42.112;24.738;2022-10-26T09:12:10;9.83;;;3.00;;
9888;SDS011;4983;42.112;24.738;2022-10-26T09:14:42;14.70;;;3.90;;
9888;SDS011;4983;42.112;24.738;2022-10-26T09:17:11;14.27;;;3.17;;
9888;SDS011;4983;42.112;24.738;2022-10-26T09:19:50;26.97;;;5.03;;
9888;SDS011;4983;42.112;24.738;2022-10-26T09:22:20;10.83;;;2.87;;
9888;SDS011;4983;42.112;24.738;2022-10-26T09:24:50;10.23;;;2.67;;
9888;SDS011;4983;42.112;24.738;2022-10-26T09:27:19;7.80;;;3.23;;
9888;SDS011;4983;42.112;24.738;2022-10-26T09:29:46;12.50;;;2.87;;
9888;SDS011;4983;42.112;24.738;2022-10-26T09:32:16;9.03;;;2.93;;
9888;SDS011;4983;42.112;24.738;2022-10-26T09:34:45;4.77;;;2.60;;
9888;SDS011;4983;42.112;24.738;2022-10-26T09:37:15;6.40;;;2.60;;
9888;SDS011;4983;42.112;24.738;2022-10-26T09:39:45;13.83;;;3.80;;
9888;SDS011;4983;42.112;24.738;2022-10-26T09:42:17;6.87;;;2.50;;
9888;SDS011;4983;42.112;24.738;2022-10-26T09:44:48;7.47;;;2.20;;
9888;SDS011;4983;42.112;24.738;2022-10-26T09:47:21;9.03;;;2.00;;
9888;SDS011;4983;42.112;24.738;2022-10-26T09:49:51;8.30;;;1.87;;
9888;SDS011;4983;42.112;24.738;2022-10-26T09:52:19;8.50;;;2.53;;
9888;SDS011;4983;42.112;24.738;2022-10-26T09:54:46;7.57;;;2.50;;
9888;SDS011;4983;42.112;24.738;2022-10-26T09:57:14;12.90;;;2.40;;
9888;SDS011;4983;42.112;24.738;2022-10-26T09:59:42;8.90;;;2.40;;
9888;SDS011;4983;42.112;24.738;2022-10-26T10:04:57;15.67;;;3.20;;
9888;SDS011;4983;42.112;24.738;2022-10-26T10:07:25;5.57;;;2.63;;
9888;SDS011;4983;42.112;24.738;2022-10-26T10:10:05;12.07;;;2.73;;
9888;SDS011;4983;42.112;24.738;2022-10-26T10:12:31;14.03;;;1.93;;
9888;SDS011;4983;42.112;24.738;2022-10-26T10:15:00;5.83;;;1.70;;
9888;SDS011;4983;42.112;24.738;2022-10-26T10:17:26;10.10;;;2.70;;
9888;SDS011;4983;42.112;24.738;2022-10-26T10:19:54;5.43;;;2.23;;
9888;SDS011;4983;42.112;24.738;2022-10-26T10:22:32;8.53;;;2.10;;
9888;SDS011;4983;42.112;24.738;2022-10-26T10:25:00;11.03;;;2.50;;
9888;SDS011;4983;42.112;24.738;2022-10-26T10:27:27;11.90;;;2.10;;
9888;SDS011;4983;42.112;24.738;2022-10-26T10:29:55;9.23;;;2.00;;
9888;SDS011;4983;42.112;24.738;2022-10-26T10:32:24;7.47;;;2.00;;
9888;SDS011;4983;42.112;24.738;2022-10-26T10:34:52;12.90;;;2.50;;
9888;SDS011;4983;42.112;24.738;2022-10-26T10:37:22;8.47;;;2.30;;
9888;SDS011;4983;42.112;24.738;2022-10-26T10:39:49;15.20;;;2.40;;
9888;SDS011;4983;42.112;24.738;2022-10-26T10:42:17;12.53;;;2.10;;
9888;SDS011;4983;42.112;24.738;2022-10-26T10:44:46;5.80;;;2.10;;
9888;SDS011;4983;42.112;24.738;2022-10-26T10:47:17;8.20;;;1.77;;
9888;SDS011;4983;42.112;24.738;2022-10-26T10:49:50;9.20;;;2.10;;
9888;SDS011;4983;42.112;24.738;2022-10-26T10:52:23;12.87;;;2.00;;
9888;SDS011;4983;42.112;24.738;2022-10-26T10:54:50;3.70;;;1.73;;
9888;SDS011;4983;42.112;24.738;2022-10-26T10:57:20;5.70;;;1.97;;
9888;SDS011;4983;42.112;24.738;2022-10-26T10:59:53;12.80;;;2.80;;
9888;SDS011;4983;42.112;24.738;2022-10-26T11:02:41;12.80;;;2.40;;
9888;SDS011;4983;42.112;24.738;2022-10-26T11:05:19;3.50;;;1.70;;
9888;SDS011;4983;42.112;24.738;2022-10-26T11:07:49;7.53;;;2.23;;
9888;SDS011;4983;42.112;24.738;2022-10-26T11:10:17;5.80;;;1.93;;
9888;SDS011;4983;42.112;24.738;2022-10-26T11:12:48;5.93;;;1.90;;
9888;SDS011;4983;42.112;24.738;2022-10-26T11:15:15;19.50;;;3.47;;
9888;SDS011;4983;42.112;24.738;2022-10-26T11:17:47;11.60;;;2.33;;
9888;SDS011;4983;42.112;24.738;2022-10-26T11:20:16;6.83;;;2.10;;
9888;SDS011;4983;42.112;24.738;2022-10-26T11:22:54;8.10;;;2.37;;
9888;SDS011;4983;42.112;24.738;2022-10-26T11:25:24;8.03;;;2.23;;
9888;SDS011;4983;42.112;24.738;2022-10-26T11:27:53;8.93;;;1.97;;
9888;SDS011;4983;42.112;24.738;2022-10-26T11:30:22;3.53;;;1.80;;
9888;SDS011;4983;42.112;24.738;2022-10-26T11:32:51;11.30;;;2.93;;
9888;SDS011;4983;42.112;24.738;2022-10-26T11:35:19;7.43;;;2.97;;
9888;SDS011;4983;42.112;24.738;2022-10-26T11:37:51;6.43;;;2.33;;
9888;SDS011;4983;42.112;24.738;2022-10-26T11:40:21;3.87;;;1.67;;
9888;SDS011;4983;42.112;24.738;2022-10-26T11:42:51;3.57;;;1.60;;
9888;SDS011;4983;42.112;24.738;2022-10-26T11:45:22;15.33;;;3.93;;
9888;SDS011;4983;42.112;24.738;2022-10-26T11:47:50;6.30;;;2.10;;
9888;SDS011;4983;42.112;24.738;2022-10-26T11:50:18;14.20;;;3.30;;
9888;SDS011;4983;42.112;24.738;2022-10-26T11:52:47;6.43;;;2.07;;
9888;SDS011;4983;42.112;24.738;2022-10-26T11:55:16;18.83;;;3.87;;
9888;SDS011;4983;42.112;24.738;2022-10-26T11:57:44;8.00;;;2.97;;
9888;SDS011;4983;42.112;24.738;2022-10-26T12:00:15;6.13;;;2.47;;
9888;SDS011;4983;42.112;24.738;2022-10-26T12:02:45;7.43;;;2.00;;
9888;SDS011;4983;42.112;24.738;2022-10-26T12:05:16;11.07;;;2.03;;
9888;SDS011;4983;42.112;24.738;2022-10-26T12:07:46;13.43;;;3.20;;
9888;SDS011;4983;42.112;24.738;2022-10-26T12:10:20;8.53;;;2.23;;
9888;SDS011;4983;42.112;24.738;2022-10-26T12:12:49;8.70;;;2.57;;
9888;SDS011;4983;42.112;24.738;2022-10-26T12:15:17;5.63;;;2.30;;
9888;SDS011;4983;42.112;24.738;2022-10-26T12:17:48;4.73;;;2.30;;
9888;SDS011;4983;42.112;24.738;2022-10-26T12:20:41;22.70;;;4.00;;
9888;SDS011;4983;42.112;24.738;2022-10-26T12:23:14;7.73;;;2.07;;
9888;SDS011;4983;42.112;24.738;2022-10-26T12:25:42;6.90;;;2.30;;
9888;SDS011;4983;42.112;24.738;2022-10-26T12:28:32;24.07;;;4.43;;
9888;SDS011;4983;42.112;24.738;2022-10-26T12:33:49;8.93;;;2.80;;
9888;SDS011;4983;42.112;24.738;2022-10-26T12:39:00;16.00;;;2.93;;
9888;SDS011;4983;42.112;24.738;2022-10-26T12:41:29;3.10;;;1.77;;
9888;SDS011;4983;42.112;24.738;2022-10-26T12:43:57;15.83;;;2.87;;
9888;SDS011;4983;42.112;24.738;2022-10-26T12:46:37;9.37;;;3.07;;
9888;SDS011;4983;42.112;24.738;2022-10-26T12:49:06;38.83;;;4.43;;
9888;SDS011;4983;42.112;24.738;2022-10-26T12:51:53;18.30;;;3.73;;
9888;SDS011;4983;42.112;24.738;2022-10-26T12:54:31;38.13;;;6.40;;
9888;SDS011;4983;42.112;24.738;2022-10-26T12:57:05;13.50;;;3.00;;
9888;SDS011;4983;42.112;24.738;2022-10-26T12:59:36;18.63;;;3.80;;
9888;SDS011;4983;42.112;24.738;2022-10-26T13:02:18;7.63;;;2.40;;
9888;SDS011;4983;42.112;24.738;2022-10-26T13:04:51;11.03;;;2.60;;
9888;SDS011;4983;42.112;24.738;2022-10-26T13:07:23;14.20;;;3.00;;
9888;SDS011;4983;42.112;24.738;2022-10-26T13:09:55;9.90;;;2.50;;
9888;SDS011;4983;42.112;24.738;2022-10-26T13:12:24;10.17;;;3.13;;
9888;SDS011;4983;42.112;24.738;2022-10-26T13:14:54;10.13;;;2.43;;
9888;SDS011;4983;42.112;24.738;2022-10-26T13:17:23;8.23;;;2.33;;
9888;SDS011;4983;42.112;24.738;2022-10-26T13:19:53;14.83;;;3.70;;
9888;SDS011;4983;42.112;24.738;2022-10-26T13:22:21;11.63;;;2.73;;
9888;SDS011;4983;42.112;24.738;2022-10-26T13:24:51;30.23;;;3.90;;
9888;SDS011;4983;42.112;24.738;2022-10-26T13:27:26;9.23;;;2.37;;
9888;SDS011;4983;42.112;24.738;2022-10-26T13:30:21;15.50;;;3.23;;
9888;SDS011;4983;42.112;24.738;2022-10-26T13:33:00;21.27;;;3.00;;
9888;SDS011;4983;42.112;24.738;2022-10-26T13:35:28;11.17;;;2.60;;
9888;SDS011;4983;42.112;24.738;2022-10-26T13:37:56;5.47;;;2.30;;
9888;SDS011;4983;42.112;24.738;2022-10-26T13:40:26;10.13;;;2.77;;
9888;SDS011;4983;42.112;24.738;2022-10-26T13:42:55;13.53;;;2.77;;
9888;SDS011;4983;42.112;24.738;2022-10-26T13:45:24;18.67;;;3.50;;
9888;SDS011;4983;42.112;24.738;2022-10-26T13:47:54;21.07;;;3.93;;
9888;SDS011;4983;42.112;24.738;2022-10-26T13:50:23;9.37;;;2.63;;
9888;SDS011;4983;42.112;24.738;2022-10-26T13:52:50;15.20;;;3.00;;
9888;SDS011;4983;42.112;24.738;2022-10-26T13:55:19;20.70;;;3.30;;
9888;SDS011;4983;42.112;24.738;2022-10-26T13:57:49;13.20;;;2.60;;
9888;SDS011;4983;42.112;24.738;2022-10-26T14:00:24;5.83;;;2.30;;
9888;SDS011;4983;42.112;24.738;2022-10-26T14:02:51;12.97;;;3.33;;
9888;SDS011;4983;42.112;24.738;2022-10-26T14:05:18;21.20;;;2.90;;
9888;SDS011;4983;42.112;24.738;2022-10-26T14:07:46;29.60;;;3.57;;
9888;SDS011;4983;42.112;24.738;2022-10-26T14:10:22;32.10;;;4.37;;
9888;SDS011;4983;42.112;24.738;2022-10-26T14:12:49;25.13;;;4.40;;
9888;SDS011;4983;42.112;24.738;2022-10-26T14:15:17;43.53;;;5.00;;
9888;SDS011;4983;42.112;24.738;2022-10-26T14:17:49;15.17;;;3.50;;
9888;SDS011;4983;42.112;24.738;2022-10-26T14:20:17;16.77;;;3.43;;
9888;SDS011;4983;42.112;24.738;2022-10-26T14:22:44;34.80;;;5.13;;
9888;SDS011;4983;42.112;24.738;2022-10-26T14:25:17;21.63;;;4.23;;
9888;SDS011;4983;42.112;24.738;2022-10-26T14:27:44;20.93;;;4.40;;
9888;SDS011;4983;42.112;24.738;2022-10-26T14:30:19;9.27;;;3.83;;
9888;SDS011;4983;42.112;24.738;2022-10-26T14:32:46;11.70;;;3.50;;
9888;SDS011;4983;42.112;24.738;2022-10-26T14:35:15;35.77;;;5.23;;
9888;SDS011;4983;42.112;24.738;2022-10-26T14:37:43;49.63;;;7.07;;
9888;SDS011;4983;42.112;24.738;2022-10-26T14:40:12;16.10;;;4.57;;
9888;SDS011;4983;42.112;24.738;2022-10-26T14:42:41;29.70;;;4.83;;
9888;SDS011;4983;42.112;24.738;2022-10-26T14:45:19;32.50;;;6.23;;
9888;SDS011;4983;42.112;24.738;2022-10-26T14:47:48;35.57;;;6.60;;
9888;SDS011;4983;42.112;24.738;2022-10-26T14:50:17;57.43;;;7.07;;
9888;SDS011;4983;42.112;24.738;2022-10-26T14:52:48;33.90;;;6.67;;
9888;SDS011;4983;42.112;24.738;2022-10-26T14:55:15;62.43;;;10.00;;
9888;SDS011;4983;42.112;24.738;2022-10-26T14:57:42;35.33;;;8.80;;
9888;SDS011;4983;42.112;24.738;2022-10-26T15:00:12;21.67;;;5.87;;
9888;SDS011;4983;42.112;24.738;2022-10-26T15:02:40;31.13;;;5.27;;
9888;SDS011;4983;42.112;24.738;2022-10-26T15:05:18;46.63;;;8.60;;
9888;SDS011;4983;42.112;24.738;2022-10-26T15:07:45;30.50;;;7.70;;
9888;SDS011;4983;42.112;24.738;2022-10-26T15:12:57;25.43;;;6.53;;
9888;SDS011;4983;42.112;24.738;2022-10-26T15:15:33;31.53;;;8.73;;
9888;SDS011;4983;42.112;24.738;2022-10-26T15:18:00;24.73;;;8.60;;